Time;durP1;ratioP1;P1;durP2;ratioP2;P2;SDS_P1;SDS_P2;PMS_P1;PMS_P2;Temp;Humidity;BMP_temperature;BMP_pressure;BME280_temperature;BME280_humidity;BME280_pressure;Samples;Min_cycle;Max_cycle;Signal;HPM_P1;HPM_P2
2022/12/14 00:01:14;;;;;;;3.10;2.50;;;-1.00;98.00;;;;;;5014701;28;20453;-67
2022/12/14 00:03:42;;;;;;;2.93;1.80;;;-0.90;98.00;;;;;;5013374;28;20453;-67
2022/12/14 00:06:13;;;;;;;2.10;1.77;;;-0.90;98.00;;;;;;5014112;28;20528;-67
2022/12/14 00:08:41;;;;;;;2.10;1.92;;;-1.00;98.00;;;;;;5013983;28;20767;-66
2022/12/14 00:11:09;;;;;;;1.90;1.80;;;-1.10;98.00;;;;;;5013935;28;20276;-67
2022/12/14 00:13:36;;;;;;;2.23;1.73;;;-1.10;98.00;;;;;;5013823;28;20457;-67
2022/12/14 00:16:08;;;;;;;2.37;2.00;;;-1.10;98.00;;;;;;5013835;28;20835;-67
2022/12/14 00:18:35;;;;;;;1.60;1.48;;;-0.90;98.00;;;;;;5013887;28;20458;-67
2022/12/14 00:21:07;;;;;;;2.10;1.80;;;-0.80;98.00;;;;;;5013836;28;20203;-67
2022/12/14 00:23:41;;;;;;;2.70;2.00;;;-0.70;98.00;;;;;;5013676;28;20801;-67
2022/12/14 00:26:10;;;;;;;2.77;2.63;;;-0.60;98.00;;;;;;5013825;28;20463;-67
2022/12/14 00:28:38;;;;;;;3.80;2.87;;;-0.70;98.00;;;;;;5013423;28;20481;-67
2022/12/14 00:31:06;;;;;;;2.70;1.70;;;-0.70;98.00;;;;;;5013747;28;20457;-67
2022/12/14 00:33:33;;;;;;;10.10;2.10;;;-0.70;98.00;;;;;;5013520;28;20462;-67
2022/12/14 00:36:00;;;;;;;1.93;1.87;;;-0.70;98.00;;;;;;5013646;28;20467;-67
2022/12/14 00:38:27;;;;;;;2.80;1.83;;;-0.70;98.00;;;;;;5013523;28;20957;-67
2022/12/14 00:40:57;;;;;;;3.80;2.30;;;-0.80;98.00;;;;;;5013645;28;20511;-67
2022/12/14 00:43:24;;;;;;;7.50;3.13;;;-0.80;98.00;;;;;;5013152;28;20468;-66
2022/12/14 00:45:52;;;;;;;1.77;1.67;;;-0.70;98.00;;;;;;5013558;28;20472;-67
2022/12/14 00:48:21;;;;;;;4.10;2.50;;;-0.70;98.00;;;;;;5013265;28;20992;-66
2022/12/14 00:50:50;;;;;;;2.63;2.43;;;-0.70;98.00;;;;;;5013674;28;20461;-67
2022/12/14 00:53:18;;;;;;;2.50;2.33;;;-0.80;98.00;;;;;;5013240;28;20993;-67
2022/12/14 00:55:47;;;;;;;1.83;1.73;;;-0.80;98.00;;;;;;5013246;28;20488;-67
2022/12/14 00:58:17;;;;;;;1.93;1.83;;;-0.90;98.00;;;;;;5013161;28;20458;-66
2022/12/14 01:00:45;;;;;;;2.30;2.10;;;-1.00;98.00;;;;;;5013241;28;20464;-67
2022/12/14 01:03:16;;;;;;;5.90;2.80;;;-0.90;98.00;;;;;;5012925;28;20962;-67
2022/12/14 01:05:43;;;;;;;5.87;3.00;;;-0.90;98.00;;;;;;5012381;28;20457;-66
2022/12/14 01:08:13;;;;;;;2.60;1.77;;;-0.80;98.00;;;;;;5012883;28;20496;-66
2022/12/14 01:10:40;;;;;;;3.05;1.60;;;-0.80;98.00;;;;;;5012826;28;20480;-66
2022/12/14 01:13:07;;;;;;;3.10;2.20;;;-0.80;98.00;;;;;;5012761;28;20656;-67
2022/12/14 01:15:36;;;;;;;3.27;2.33;;;-0.80;98.00;;;;;;5012522;28;20465;-67
2022/12/14 01:18:04;;;;;;;1.93;1.80;;;-0.90;98.00;;;;;;5012695;28;20467;-67
2022/12/14 01:20:32;;;;;;;4.67;2.60;;;-0.80;98.00;;;;;;5012603;28;20494;-67
2022/12/14 01:23:00;;;;;;;3.73;2.67;;;-0.80;98.00;;;;;;4995448;28;20884;-67
2022/12/14 01:25:28;;;;;;;6.23;2.23;;;-0.90;98.00;;;;;;5012569;28;20464;-67
2022/12/14 01:27:56;;;;;;;3.47;2.57;;;-0.90;98.00;;;;;;5012334;28;20454;-67
2022/12/14 01:30:23;;;;;;;2.70;2.20;;;-0.90;98.00;;;;;;5012521;28;20461;-67
2022/12/14 01:32:51;;;;;;;2.47;2.23;;;-0.90;98.00;;;;;;5012578;28;20468;-67
2022/12/14 01:35:19;;;;;;;4.35;3.58;;;-0.90;98.00;;;;;;5012462;28;20460;-67
2022/12/14 01:37:46;;;;;;;2.22;2.03;;;-0.90;98.00;;;;;;5012357;28;20217;-67
2022/12/14 01:40:14;;;;;;;2.63;2.43;;;-0.90;98.00;;;;;;5012451;28;20226;-66
2022/12/14 01:42:41;;;;;;;3.85;2.08;;;-0.90;98.00;;;;;;5012424;28;20466;-67
2022/12/14 01:45:18;;;;;;;2.47;1.53;;;-0.90;98.00;;;;;;5012873;28;20653;-67
2022/12/14 01:47:54;;;;;;;2.97;1.90;;;-0.80;98.00;;;;;;5012447;28;20469;-67
2022/12/14 01:50:26;;;;;;;1.47;1.37;;;-0.80;98.00;;;;;;5012304;28;20463;-67
2022/12/14 01:52:57;;;;;;;3.67;2.40;;;-0.90;98.00;;;;;;5012111;28;20461;-67
2022/12/14 01:55:27;;;;;;;3.33;2.37;;;-0.90;98.00;;;;;;5012015;28;20836;-67
2022/12/14 01:57:58;;;;;;;3.30;2.27;;;-0.80;98.00;;;;;;5012102;28;20458;-66
2022/12/14 02:00:26;;;;;;;2.88;2.65;;;-0.80;98.00;;;;;;5012186;28;20585;-67
2022/12/14 02:03:00;;;;;;;2.63;2.30;;;-0.70;98.00;;;;;;5011982;28;20206;-67
2022/12/14 02:05:29;;;;;;;4.32;2.65;;;-0.70;98.00;;;;;;5012054;28;20567;-66
2022/12/14 02:07:57;;;;;;;2.42;2.22;;;-0.70;98.00;;;;;;5011602;28;20274;-67
2022/12/14 02:10:29;;;;;;;4.23;3.10;;;-0.80;98.00;;;;;;5011753;28;20282;-67
2022/12/14 02:13:04;;;;;;;2.22;1.65;;;-0.90;98.00;;;;;;5011829;28;20455;-67
2022/12/14 02:15:31;;;;;;;2.53;2.20;;;-0.90;98.00;;;;;;5011836;28;20233;-67
2022/12/14 02:18:03;;;;;;;4.95;2.47;;;-0.90;98.00;;;;;;5011889;28;20464;-67
2022/12/14 02:20:49;;;;;;;2.90;1.83;;;-0.90;98.00;;;;;;5011731;28;20267;-67
2022/12/14 02:23:47;;;;;;;4.77;2.80;;;-0.90;98.00;;;;;;5011700;28;20460;-67
2022/12/14 02:26:57;;;;;;;2.00;1.93;;;-0.80;98.00;;;;;;5010969;28;20461;-67
2022/12/14 02:29:44;;;;;;;2.80;2.13;;;-0.80;98.00;;;;;;5005944;28;20541;-66
2022/12/14 02:32:22;;;;;;;3.97;2.63;;;-0.80;98.00;;;;;;5011545;28;20814;-67
2022/12/14 02:34:57;;;;;;;9.80;2.93;;;-0.80;98.00;;;;;;5011548;28;20684;-67
2022/12/14 02:37:31;;;;;;;2.63;1.90;;;-0.70;98.00;;;;;;5011658;28;20954;-67
2022/12/14 02:40:18;;;;;;;3.65;2.45;;;-0.80;98.00;;;;;;5011812;28;20253;-67
2022/12/14 02:42:58;;;;;;;3.33;2.10;;;-0.70;98.00;;;;;;5011579;28;20214;-67
2022/12/14 02:45:37;;;;;;;1.77;1.67;;;-0.70;98.00;;;;;;5011634;28;20205;-66
2022/12/14 02:48:08;;;;;;;7.57;2.60;;;-0.70;98.00;;;;;;5011494;28;20209;-66
2022/12/14 02:50:43;;;;;;;3.07;2.80;;;-0.60;98.00;;;;;;5011414;28;20229;-67
2022/12/14 02:53:19;;;;;;;2.80;2.23;;;-0.60;98.00;;;;;;5011368;28;20468;-67
2022/12/14 02:55:50;;;;;;;2.45;2.25;;;-0.70;98.00;;;;;;5011370;28;20464;-67
2022/12/14 02:58:22;;;;;;;4.20;2.20;;;-0.80;98.00;;;;;;5011372;28;20209;-67
2022/12/14 03:00:51;;;;;;;4.80;3.20;;;-0.70;98.00;;;;;;5011465;28;20480;-67
2022/12/14 03:03:18;;;;;;;2.70;1.90;;;-0.80;98.00;;;;;;5011230;28;20459;-67
2022/12/14 03:05:55;;;;;;;3.80;2.40;;;-0.90;98.00;;;;;;5011423;28;20465;-66
2022/12/14 03:08:24;;;;;;;2.35;2.20;;;-0.80;98.00;;;;;;5011854;28;20474;-66
2022/12/14 03:10:54;;;;;;;3.70;2.20;;;-0.80;98.00;;;;;;5011745;28;20544;-67
2022/12/14 03:13:26;;;;;;;3.13;2.07;;;-0.70;98.00;;;;;;5012096;28;20829;-66
2022/12/14 03:16:00;;;;;;;4.57;2.42;;;-0.70;98.00;;;;;;5011624;28;20467;-67
2022/12/14 03:18:34;;;;;;;3.20;2.25;;;-0.80;98.00;;;;;;5011299;28;20511;-67
2022/12/14 03:21:03;;;;;;;4.27;2.60;;;-0.80;98.00;;;;;;5011271;28;20275;-67
2022/12/14 03:23:34;;;;;;;1.73;1.70;;;-0.70;98.00;;;;;;5011292;28;20507;-67
2022/12/14 03:26:13;;;;;;;2.90;1.90;;;-0.80;98.00;;;;;;5011103;28;20465;-66
2022/12/14 03:28:45;;;;;;;2.10;1.70;;;-0.70;98.00;;;;;;5011047;28;20459;-67
2022/12/14 03:31:20;;;;;;;3.30;2.70;;;-0.80;98.00;;;;;;5011245;28;20266;-66
2022/12/14 03:33:50;;;;;;;5.43;2.90;;;-0.80;98.00;;;;;;5011430;28;20461;-66
2022/12/14 03:36:25;;;;;;;2.43;2.23;;;-0.80;98.00;;;;;;5011511;28;20463;-67
2022/12/14 03:38:57;;;;;;;5.40;2.73;;;-0.80;98.00;;;;;;5014031;28;20950;-67
2022/12/14 03:41:31;;;;;;;3.23;2.60;;;-0.80;98.00;;;;;;5014625;28;20461;-67
2022/12/14 03:44:17;;;;;;;2.95;2.30;;;-0.90;98.00;;;;;;5014741;28;20464;-67
2022/12/14 03:46:57;;;;;;;3.07;2.80;;;-0.90;98.00;;;;;;5014507;28;20217;-67
2022/12/14 03:49:39;;;;;;;3.40;2.67;;;-0.90;98.00;;;;;;5014356;28;20495;-67
2022/12/14 03:52:12;;;;;;;3.55;2.78;;;-0.90;98.00;;;;;;5014738;28;20206;-67
2022/12/14 03:54:49;;;;;;;7.22;3.90;;;-0.80;98.00;;;;;;5013508;28;20216;-66
2022/12/14 03:57:28;;;;;;;1.67;1.53;;;-0.80;98.00;;;;;;5014355;28;20579;-67
2022/12/14 04:00:01;;;;;;;2.40;2.22;;;-0.80;98.00;;;;;;5014491;28;20846;-66
2022/12/14 04:02:35;;;;;;;3.40;2.30;;;-0.80;98.00;;;;;;5014240;28;20209;-67
2022/12/14 04:05:06;;;;;;;4.23;2.40;;;-0.80;98.00;;;;;;5014157;28;20995;-67
2022/12/14 04:07:40;;;;;;;6.20;2.67;;;-0.80;98.00;;;;;;5014151;28;21108;-67
2022/12/14 04:21:28;;;;;;;2.40;1.40;;;-0.80;98.00;;;;;;5014128;28;20444;-67
2022/12/14 04:26:49;;;;;;;6.73;3.00;;;-0.80;98.00;;;;;;5014476;28;20449;-67
2022/12/14 04:32:11;;;;;;;1.80;1.77;;;-0.70;98.00;;;;;;5013847;28;20448;-66
2022/12/14 04:34:41;;;;;;;3.30;3.07;;;-0.70;98.00;;;;;;5013671;28;20465;-67
2022/12/14 04:37:14;;;;;;;4.13;2.73;;;-0.60;98.00;;;;;;5013870;28;20461;-67
2022/12/14 04:39:45;;;;;;;2.73;2.57;;;-0.60;98.00;;;;;;4996566;28;20530;-67
2022/12/14 04:42:16;;;;;;;2.63;2.43;;;-0.70;98.00;;;;;;5013547;28;20460;-66
2022/12/14 04:44:47;;;;;;;4.40;3.00;;;-0.70;98.00;;;;;;5013435;28;20469;-66
2022/12/14 04:47:17;;;;;;;2.77;2.40;;;-0.70;98.00;;;;;;5013422;28;20454;-66
2022/12/14 04:49:50;;;;;;;1.80;1.70;;;-0.80;98.00;;;;;;5012478;28;20489;-67
2022/12/14 04:52:21;;;;;;;2.80;2.25;;;-0.80;98.00;;;;;;5013266;28;20463;-66
2022/12/14 04:54:55;;;;;;;3.90;2.87;;;-0.90;98.00;;;;;;5013337;28;20214;-66
2022/12/14 04:57:27;;;;;;;3.10;1.60;;;-0.80;98.00;;;;;;5013038;28;20461;-66
2022/12/14 04:59:56;;;;;;;4.63;2.20;;;-0.90;98.00;;;;;;4993578;28;20608;-66
2022/12/14 05:02:37;;;;;;;4.27;2.40;;;-0.80;98.00;;;;;;4993351;28;20282;-66
2022/12/14 05:05:13;;;;;;;5.17;2.03;;;-0.70;98.00;;;;;;4993608;28;20465;-67
2022/12/14 05:07:49;;;;;;;1.83;1.73;;;-0.80;98.00;;;;;;4993293;28;20490;-67
2022/12/14 05:10:20;;;;;;;4.70;2.77;;;-0.70;98.00;;;;;;4993267;28;20488;-67
2022/12/14 05:12:53;;;;;;;2.77;2.20;;;-0.60;98.00;;;;;;4993502;28;20883;-67
2022/12/14 05:15:24;;;;;;;2.95;2.33;;;-0.70;98.00;;;;;;4993186;28;20846;-67
2022/12/14 05:17:52;;;;;;;3.38;2.15;;;-0.70;98.00;;;;;;4993356;28;20214;-67
2022/12/14 05:20:23;;;;;;;3.45;2.55;;;-0.70;98.00;;;;;;4993409;28;20207;-67
2022/12/14 05:22:53;;;;;;;6.07;3.50;;;-0.70;98.00;;;;;;4993444;28;20207;-67
2022/12/14 05:25:20;;;;;;;2.47;2.28;;;-0.60;98.00;;;;;;4993052;28;20256;-67
2022/12/14 05:27:48;;;;;;;3.80;2.63;;;-0.50;98.00;;;;;;4993065;28;20198;-67
2022/12/14 05:30:16;;;;;;;2.90;2.17;;;-0.50;98.00;;;;;;4992780;28;20712;-67
2022/12/14 05:32:43;;;;;;;9.10;3.00;;;-0.40;98.00;;;;;;4993181;28;20462;-67
2022/12/14 05:35:12;;;;;;;3.83;2.50;;;-0.40;98.00;;;;;;4992908;28;20961;-67
2022/12/14 05:37:41;;;;;;;2.40;2.20;;;-0.50;98.00;;;;;;4992750;28;20455;-67
2022/12/14 05:40:09;;;;;;;5.43;2.73;;;-0.40;98.00;;;;;;4992648;28;20462;-67
2022/12/14 05:42:37;;;;;;;5.00;3.70;;;-0.40;98.00;;;;;;4992684;28;20945;-67
2022/12/14 05:45:05;;;;;;;2.50;1.77;;;-0.40;98.00;;;;;;4992806;28;20513;-67
2022/12/14 05:47:33;;;;;;;4.50;2.47;;;-0.40;98.00;;;;;;4992631;28;20467;-67
2022/12/14 05:50:00;;;;;;;4.13;3.00;;;-0.40;98.00;;;;;;4992642;28;20864;-67
2022/12/14 05:52:28;;;;;;;6.13;3.20;;;-0.40;98.00;;;;;;4992440;28;20458;-66
2022/12/14 05:54:57;;;;;;;5.70;3.30;;;-0.40;98.00;;;;;;4992531;28;20474;-67
2022/12/14 05:57:23;;;;;;;3.20;2.63;;;-0.50;98.00;;;;;;4992433;28;20461;-66
2022/12/14 05:59:51;;;;;;;3.57;2.60;;;-0.50;98.00;;;;;;4992496;28;20497;-66
2022/12/14 06:02:18;;;;;;;4.07;2.87;;;-0.50;98.00;;;;;;4992306;28;20806;-67
2022/12/14 06:04:45;;;;;;;5.77;4.70;;;-0.40;98.00;;;;;;4992239;28;20454;-67
2022/12/14 06:07:12;;;;;;;7.30;3.17;;;-0.40;98.00;;;;;;4992213;28;20471;-67
2022/12/14 06:09:40;;;;;;;2.80;2.30;;;-0.40;98.00;;;;;;4992224;28;20545;-67
2022/12/14 06:12:10;;;;;;;3.70;2.70;;;-0.30;98.00;;;;;;4992281;28;20460;-67
2022/12/14 06:14:37;;;;;;;5.57;4.17;;;-0.30;98.00;;;;;;4992560;28;20838;-67
2022/12/14 06:17:05;;;;;;;5.60;2.47;;;-0.30;98.00;;;;;;4992230;28;20523;-67
2022/12/14 06:19:32;;;;;;;3.27;2.70;;;-0.20;98.00;;;;;;4992013;28;20490;-66
2022/12/14 06:22:00;;;;;;;5.03;3.47;;;-0.30;98.00;;;;;;4992095;28;20454;-67
2022/12/14 06:24:28;;;;;;;8.77;4.97;;;-0.40;98.00;;;;;;4992091;28;20464;-67
2022/12/14 06:26:55;;;;;;;3.47;2.27;;;-0.40;98.00;;;;;;4992184;28;20545;-67
2022/12/14 06:29:23;;;;;;;4.43;3.13;;;-0.40;98.00;;;;;;4991748;28;20945;-67
2022/12/14 06:31:50;;;;;;;8.60;3.57;;;-0.30;98.00;;;;;;4991949;28;20463;-67
2022/12/14 06:34:18;;;;;;;8.23;4.53;;;-0.30;98.00;;;;;;4992134;28;20463;-67
2022/12/14 06:36:46;;;;;;;3.90;2.63;;;-0.30;98.00;;;;;;4991969;28;20871;-66
2022/12/14 06:39:15;;;;;;;6.33;3.30;;;-0.30;98.00;;;;;;4991948;28;20450;-67
2022/12/14 06:41:43;;;;;;;5.43;2.83;;;-0.30;98.00;;;;;;4991969;28;20466;-67
2022/12/14 06:44:13;;;;;;;6.53;3.50;;;-0.30;98.00;;;;;;4991828;28;20462;-67
2022/12/14 06:46:43;;;;;;;3.20;2.63;;;-0.30;98.00;;;;;;4991953;28;20473;-67
2022/12/14 06:49:13;;;;;;;3.10;2.20;;;-0.30;98.00;;;;;;4991857;28;20454;-66
2022/12/14 06:51:41;;;;;;;2.93;1.90;;;-0.30;98.00;;;;;;4991710;28;20492;-67
2022/12/14 06:54:10;;;;;;;4.80;3.30;;;-0.30;98.00;;;;;;4991693;28;20892;-67
2022/12/14 06:56:37;;;;;;;8.40;4.00;;;-0.30;98.00;;;;;;4991749;28;20465;-67
2022/12/14 06:59:05;;;;;;;5.20;2.87;;;-0.30;98.00;;;;;;4991993;28;20794;-67
2022/12/14 07:01:32;;;;;;;10.27;3.30;;;-0.20;98.00;;;;;;4991679;28;20985;-67
2022/12/14 07:04:00;;;;;;;4.10;2.43;;;-0.20;98.00;;;;;;4991610;28;20470;-66
2022/12/14 07:06:31;;;;;;;7.23;3.70;;;-0.30;98.00;;;;;;4991429;28;20475;-67
2022/12/14 07:09:00;;;;;;;2.80;2.00;;;-0.40;98.00;;;;;;4992051;28;20873;-67
2022/12/14 07:11:29;;;;;;;6.70;4.13;;;-0.50;98.00;;;;;;4991549;28;20492;-66
2022/12/14 07:13:56;;;;;;;4.23;3.00;;;-0.50;98.00;;;;;;4994809;28;20557;-67
2022/12/14 07:16:25;;;;;;;4.13;3.47;;;-0.50;98.00;;;;;;4995517;28;20956;-67
2022/12/14 07:18:53;;;;;;;3.97;2.63;;;-0.50;98.00;;;;;;4995427;28;20471;-67
2022/12/14 07:21:22;;;;;;;8.43;4.40;;;-0.50;98.00;;;;;;4995329;28;20493;-67
2022/12/14 07:23:51;;;;;;;3.63;2.83;;;-0.50;98.00;;;;;;4995414;28;20462;-67
2022/12/14 07:26:20;;;;;;;3.97;2.40;;;-0.40;98.00;;;;;;4995256;28;20551;-67
2022/12/14 07:28:48;;;;;;;3.53;2.30;;;-0.30;98.00;;;;;;4995339;28;20470;-67
2022/12/14 07:31:17;;;;;;;7.60;3.57;;;-0.40;98.00;;;;;;4995652;28;20582;-67
2022/12/14 07:33:45;;;;;;;8.50;3.83;;;-0.40;98.00;;;;;;4995173;28;20467;-66
2022/12/14 07:36:14;;;;;;;4.33;3.47;;;-0.30;98.00;;;;;;4995152;28;20457;-67
2022/12/14 07:38:45;;;;;;;5.60;2.93;;;-0.30;98.00;;;;;;4995303;28;20561;-67
2022/12/14 07:41:14;;;;;;;3.17;2.53;;;-0.30;98.00;;;;;;4995081;28;20559;-67
2022/12/14 07:43:42;;;;;;;5.90;3.37;;;-0.30;98.00;;;;;;4995180;28;20804;-66
2022/12/14 07:46:11;;;;;;;2.80;2.27;;;-0.20;98.00;;;;;;4995802;28;20830;-61
2022/12/14 07:48:39;;;;;;;3.93;2.30;;;-0.20;98.00;;;;;;4995371;28;20835;-61
2022/12/14 07:51:08;;;;;;;6.17;3.67;;;-0.20;98.00;;;;;;4995537;28;20498;-61
2022/12/14 07:53:36;;;;;;;6.20;3.57;;;-0.20;98.00;;;;;;4994830;28;20761;-61
2022/12/14 07:56:07;;;;;;;5.13;3.13;;;-0.10;98.00;;;;;;4995095;28;20468;-61
2022/12/14 07:58:35;;;;;;;4.77;3.27;;;0.10;98.00;;;;;;4994775;28;20477;-61
2022/12/14 08:01:11;;;;;;;3.30;2.73;;;0.30;98.00;;;;;;4995240;28;20467;-61
2022/12/14 08:03:39;;;;;;;4.03;2.73;;;0.30;98.00;;;;;;4994648;28;20467;-61
2022/12/14 08:06:08;;;;;;;5.87;3.60;;;0.20;98.00;;;;;;4994593;28;20861;-61
2022/12/14 08:08:35;;;;;;;4.07;2.57;;;0.30;98.00;;;;;;4994455;28;20456;-61
2022/12/14 08:11:04;;;;;;;4.57;3.43;;;0.20;98.00;;;;;;4994484;28;21018;-61
2022/12/14 08:13:31;;;;;;;2.70;2.50;;;0.30;98.00;;;;;;4994429;28;20491;-61
2022/12/14 08:16:03;;;;;;;6.63;3.30;;;0.40;98.00;;;;;;4994605;28;20530;-61
2022/12/14 08:18:32;;;;;;;4.77;3.40;;;0.30;98.00;;;;;;4994318;28;20471;-61
2022/12/14 08:20:59;;;;;;;7.87;3.67;;;0.30;98.00;;;;;;4994365;28;20452;-61
2022/12/14 08:23:27;;;;;;;6.47;3.60;;;0.20;98.00;;;;;;4993803;28;20465;-61
2022/12/14 08:25:54;;;;;;;3.83;3.40;;;0.30;98.00;;;;;;4993650;28;20816;-61
2022/12/14 08:28:24;;;;;;;3.70;2.90;;;0.30;98.00;;;;;;4994114;28;20551;-61
2022/12/14 08:30:52;;;;;;;7.57;3.93;;;0.30;98.00;;;;;;4994857;28;20916;-61
2022/12/14 08:33:19;;;;;;;4.23;3.40;;;0.20;98.00;;;;;;5013568;28;20465;-61
2022/12/14 08:35:46;;;;;;;4.30;3.20;;;0.30;98.00;;;;;;5013643;28;20465;-61
2022/12/14 08:38:14;;;;;;;6.40;4.30;;;0.40;98.00;;;;;;5013434;28;20517;-61
2022/12/14 08:40:42;;;;;;;3.50;2.77;;;0.60;98.00;;;;;;5013636;28;20536;-61
2022/12/14 08:43:09;;;;;;;3.53;3.07;;;0.70;98.00;;;;;;5012436;28;20976;-61
2022/12/14 08:45:38;;;;;;;7.60;3.10;;;0.70;98.00;;;;;;5013417;28;20466;-61
2022/12/14 08:48:05;;;;;;;5.30;3.53;;;0.70;98.00;;;;;;5013291;28;20471;-61
2022/12/14 08:50:35;;;;;;;5.77;2.93;;;0.60;98.00;;;;;;5013399;28;20493;-61
2022/12/14 08:53:02;;;;;;;6.10;3.23;;;0.80;98.00;;;;;;5012454;28;20554;-61
2022/12/14 08:55:29;;;;;;;7.47;3.93;;;0.80;98.00;;;;;;5013039;28;20463;-61
2022/12/14 08:57:57;;;;;;;4.90;3.20;;;0.90;98.00;;;;;;5013589;28;20458;-61
2022/12/14 09:00:26;;;;;;;3.83;2.63;;;0.90;98.00;;;;;;5012164;28;20828;-63
2022/12/14 09:02:54;;;;;;;3.20;2.70;;;0.90;98.00;;;;;;5013413;28;20476;-63
2022/12/14 09:05:21;;;;;;;5.57;3.70;;;0.90;98.00;;;;;;5013007;28;20815;-63
2022/12/14 09:07:49;;;;;;;7.97;3.50;;;1.10;98.00;;;;;;5012808;28;20984;-63
2022/12/14 09:10:16;;;;;;;3.70;2.70;;;1.10;98.00;;;;;;5012769;28;20464;-63
2022/12/14 09:12:43;;;;;;;5.80;3.40;;;1.10;98.00;;;;;;5012928;28;20960;-63
2022/12/14 09:15:11;;;;;;;3.83;2.63;;;1.00;98.00;;;;;;5012856;28;20517;-63
2022/12/14 09:17:38;;;;;;;4.70;2.43;;;1.00;98.00;;;;;;5010225;28;20458;-63
2022/12/14 09:20:07;;;;;;;5.90;3.83;;;1.00;98.00;;;;;;4999243;28;20472;-63
2022/12/14 09:22:34;;;;;;;4.50;2.97;;;1.00;98.00;;;;;;4991679;28;20479;-63
2022/12/14 09:25:03;;;;;;;6.30;3.77;;;1.00;98.00;;;;;;4993555;28;20459;-64
2022/12/14 09:27:32;;;;;;;6.10;3.43;;;1.00;98.00;;;;;;4993578;28;20513;-64
2022/12/14 09:29:59;;;;;;;5.23;4.00;;;1.00;98.00;;;;;;4993590;28;20460;-63
2022/12/14 09:32:29;;;;;;;4.73;3.33;;;1.00;98.00;;;;;;4975466;28;20487;-63
2022/12/14 09:34:58;;;;;;;7.80;4.13;;;0.90;98.00;;;;;;5009888;28;20802;-64
2022/12/14 09:37:27;;;;;;;5.37;3.07;;;0.80;98.00;;;;;;5013061;28;20986;-63
2022/12/14 09:39:54;;;;;;;9.57;4.43;;;0.90;98.00;;;;;;5012757;28;20459;-63
2022/12/14 09:42:39;;;;;;;5.67;3.00;;;0.80;98.00;;;;;;5013031;28;20475;-63
2022/12/14 09:45:16;;;;;;;5.07;3.47;;;0.80;98.00;;;;;;5012993;28;20793;-63
2022/12/14 09:47:48;;;;;;;2.53;2.10;;;0.70;98.00;;;;;;5012897;28;20498;-68
2022/12/14 09:50:18;;;;;;;3.00;2.50;;;0.80;98.00;;;;;;5012862;28;20459;-64
2022/12/14 09:52:51;;;;;;;6.90;3.30;;;0.70;98.00;;;;;;5013136;28;20462;-65
2022/12/14 09:55:22;;;;;;;4.33;3.33;;;0.60;98.00;;;;;;5012591;28;20466;-63
2022/12/14 09:57:54;;;;;;;3.70;3.23;;;0.60;98.00;;;;;;5012884;28;20470;-64
2022/12/14 10:00:22;;;;;;;6.10;3.00;;;0.60;98.00;;;;;;5012576;28;20465;-65
2022/12/14 10:03:08;;;;;;;6.87;3.97;;;0.70;98.00;;;;;;5012397;28;20465;-65
2022/12/14 10:05:59;;;;;;;4.40;3.90;;;1.00;98.00;;;;;;5012174;28;20829;-66
2022/12/14 10:08:34;;;;;;;4.67;2.33;;;1.00;98.00;;;;;;5012366;28;20478;-65
2022/12/14 10:11:06;;;;;;;4.93;2.80;;;1.10;98.00;;;;;;5012393;28;20486;-66
2022/12/14 10:13:45;;;;;;;5.17;2.90;;;1.30;98.00;;;;;;5012384;28;20474;-63
2022/12/14 10:16:22;;;;;;;5.77;3.60;;;1.30;98.00;;;;;;5012458;28;20498;-62
2022/12/14 10:19:09;;;;;;;5.33;3.70;;;1.40;98.00;;;;;;5012429;28;20864;-64
2022/12/14 10:21:46;;;;;;;6.03;3.37;;;1.40;98.00;;;;;;5012322;28;20471;-64
2022/12/14 10:24:20;;;;;;;6.17;3.20;;;1.30;98.00;;;;;;5012337;28;20451;-64
2022/12/14 10:26:51;;;;;;;7.50;2.60;;;1.30;98.00;;;;;;5012403;28;20475;-64
2022/12/14 10:29:33;;;;;;;10.57;4.67;;;1.40;98.00;;;;;;5010914;28;20513;-64
2022/12/14 10:32:16;;;;;;;6.07;4.17;;;1.50;98.00;;;;;;5012130;28;20486;-64
2022/12/14 10:34:44;;;;;;;1.97;1.87;;;1.60;98.00;;;;;;5012062;28;20462;-63
2022/12/14 10:37:26;;;;;;;6.17;2.80;;;1.50;98.00;;;;;;5012180;28;20956;-64
2022/12/14 10:40:17;;;;;;;17.37;2.30;;;1.50;98.00;;;;;;5012133;28;20462;-64
2022/12/14 10:42:58;;;;;;;1.90;1.83;;;1.40;98.00;;;;;;5012165;28;20549;-64
2022/12/14 10:45:36;;;;;;;4.73;3.33;;;1.20;98.00;;;;;;4992359;28;20964;-64
2022/12/14 10:48:19;;;;;;;4.50;3.83;;;1.10;98.00;;;;;;5001371;28;20454;-63
2022/12/14 10:50:55;;;;;;;3.47;2.87;;;1.10;98.00;;;;;;5011792;28;20486;-64
2022/12/14 10:53:27;;;;;;;8.67;3.87;;;1.00;98.00;;;;;;5011702;28;20469;-64
2022/12/14 10:56:00;;;;;;;4.30;3.03;;;1.10;98.00;;;;;;5010118;28;20841;-64
2022/12/14 10:58:28;;;;;;;5.67;3.13;;;1.30;98.00;;;;;;5008835;28;20463;-64
2022/12/14 11:00:55;;;;;;;10.50;4.47;;;1.30;98.00;;;;;;5008502;28;20455;-64
2022/12/14 11:03:22;;;;;;;5.70;3.03;;;1.20;98.00;;;;;;5008833;28;20470;-64
2022/12/14 11:05:58;;;;;;;4.90;2.73;;;1.10;98.00;;;;;;4975255;28;20459;-63
2022/12/14 11:08:40;;;;;;;6.70;3.30;;;1.00;98.00;;;;;;5008797;28;20517;-64
2022/12/14 11:11:14;;;;;;;4.60;3.70;;;1.00;98.00;;;;;;5009179;28;20494;-64
2022/12/14 11:13:48;;;;;;;3.00;2.80;;;1.00;98.00;;;;;;5008689;28;20463;-65
2022/12/14 11:16:27;;;;;;;4.20;3.30;;;1.10;98.00;;;;;;5008694;28;20465;-64
2022/12/14 11:23:54;;;;;;;4.13;3.40;;;1.10;98.00;;;;;;5014645;28;20514;-64
2022/12/14 11:26:28;;;;;;;6.00;3.50;;;1.10;98.00;;;;;;5017473;28;20517;-65
2022/12/14 11:28:57;;;;;;;3.87;2.97;;;1.30;98.00;;;;;;5021632;28;20513;-65
2022/12/14 11:31:32;;;;;;;4.87;3.90;;;1.50;98.00;;;;;;5014161;28;20535;-65
2022/12/14 11:34:01;;;;;;;10.43;4.50;;;1.40;98.00;;;;;;5008185;28;21040;-65
2022/12/14 11:36:32;;;;;;;6.90;3.60;;;1.60;98.00;;;;;;5022071;28;20455;-65
2022/12/14 11:39:01;;;;;;;17.60;5.53;;;1.60;98.00;;;;;;5022776;28;20464;-65
2022/12/14 11:41:34;;;;;;;5.57;3.33;;;1.70;98.00;;;;;;5008535;28;20456;-65
2022/12/14 11:44:04;;;;;;;7.57;3.40;;;1.70;98.00;;;;;;5022581;28;20544;-64
2022/12/14 11:46:42;;;;;;;6.47;3.13;;;1.70;98.00;;;;;;5022851;28;20866;-65
2022/12/14 11:49:21;;;;;;;7.03;4.43;;;1.60;98.00;;;;;;5024772;28;20849;-66
2022/12/14 11:52:00;;;;;;;8.93;4.10;;;1.70;98.00;;;;;;5018471;28;20913;-65
2022/12/14 11:54:28;;;;;;;8.33;2.90;;;1.70;98.00;;;;;;5026192;28;20461;-65
2022/12/14 11:57:04;;;;;;;6.80;4.63;;;1.70;98.00;;;;;;5010081;28;21016;-64
2022/12/14 11:59:39;;;;;;;6.70;4.80;;;1.80;98.00;;;;;;5011077;28;20470;-63
2022/12/14 12:02:37;;;;;;;6.30;3.13;;;1.90;98.00;;;;;;5022124;28;20825;-64
2022/12/14 12:05:08;;;;;;;5.90;3.50;;;2.00;98.00;;;;;;5025703;28;20501;-64
2022/12/14 12:07:38;;;;;;;4.90;2.67;;;2.00;98.00;;;;;;5017321;28;20949;-64
2022/12/14 12:10:17;;;;;;;6.67;4.43;;;2.00;98.00;;;;;;5015750;28;20850;-63
2022/12/14 12:12:55;;;;;;;7.27;2.90;;;2.10;98.00;;;;;;5020010;28;20486;-63
2022/12/14 12:15:24;;;;;;;7.50;3.17;;;2.00;98.00;;;;;;5020886;28;20455;-63
2022/12/14 12:17:55;;;;;;;8.70;3.43;;;2.10;98.00;;;;;;5021662;28;20462;-63
2022/12/14 12:20:32;;;;;;;14.60;4.63;;;2.20;98.00;;;;;;5011793;28;20452;-64
2022/12/14 12:23:04;;;;;;;8.40;4.47;;;2.20;98.00;;;;;;5020197;28;20470;-64
2022/12/14 12:25:35;;;;;;;4.13;3.50;;;2.20;98.00;;;;;;5022195;28;20546;-64
2022/12/14 12:28:12;;;;;;;7.60;4.07;;;2.30;98.00;;;;;;5029382;28;20466;-63
2022/12/14 12:30:43;;;;;;;9.23;4.33;;;2.40;98.00;;;;;;5021159;28;20502;-63
2022/12/14 12:33:28;;;;;;;9.10;6.40;;;2.50;98.00;;;;;;5015407;28;20996;-63
2022/12/14 12:35:58;;;;;;;5.73;4.30;;;2.60;98.00;;;;;;5019828;28;20483;-63
2022/12/14 12:38:47;;;;;;;10.20;4.97;;;2.60;98.00;;;;;;5020063;28;20458;-63
2022/12/14 12:41:24;;;;;;;7.47;4.50;;;2.60;98.00;;;;;;5011677;28;20804;-63
2022/12/14 12:43:57;;;;;;;11.17;4.80;;;2.60;98.00;;;;;;5020057;28;20470;-64
2022/12/14 12:46:28;;;;;;;7.13;4.03;;;2.50;98.00;;;;;;5029798;28;20459;-63
2022/12/14 12:49:03;;;;;;;6.70;3.73;;;2.50;98.00;;;;;;5020061;28;20542;-65
2022/12/14 12:51:35;;;;;;;7.00;3.30;;;2.50;98.00;;;;;;5028567;28;20492;-63
2022/12/14 12:54:07;;;;;;;9.90;5.47;;;2.50;98.00;;;;;;5029181;28;20470;-63
2022/12/14 12:56:42;;;;;;;13.20;5.10;;;2.50;98.00;;;;;;5027146;28;20571;-62
2022/12/14 12:59:16;;;;;;;11.20;4.50;;;2.50;98.00;;;;;;5023238;28;20548;-63
2022/12/14 13:01:48;;;;;;;5.07;3.60;;;2.50;98.00;;;;;;5018768;28;20553;-62
2022/12/14 13:04:26;;;;;;;5.63;3.80;;;2.50;98.00;;;;;;5015554;28;20470;-63
2022/12/14 13:06:57;;;;;;;6.40;4.73;;;2.50;98.00;;;;;;5028575;28;20482;-62
2022/12/14 13:09:36;;;;;;;3.03;2.80;;;2.40;98.00;;;;;;5021149;28;20881;-63
2022/12/14 13:12:07;;;;;;;6.27;3.97;;;2.30;98.00;;;;;;5011288;28;20527;-63
2022/12/14 13:14:41;;;;;;;7.07;4.60;;;2.40;98.00;;;;;;5010481;28;20550;-63
2022/12/14 13:17:21;;;;;;;7.70;3.93;;;2.40;98.00;;;;;;5028209;28;20454;-63
2022/12/14 13:19:51;;;;;;;3.87;2.80;;;2.30;98.00;;;;;;5028938;28;20462;-65
2022/12/14 13:22:24;;;;;;;6.07;3.67;;;2.10;98.00;;;;;;5020633;28;20554;-63
2022/12/14 13:25:00;;;;;;;4.17;3.63;;;1.90;98.00;;;;;;5029348;28;20904;-64
2022/12/14 13:27:45;;;;;;;8.37;3.93;;;1.80;98.00;;;;;;5017311;28;20475;-63
2022/12/14 13:30:39;;;;;;;4.63;3.53;;;1.80;98.00;;;;;;5017240;28;20459;-63
2022/12/14 13:33:44;;;;;;;4.67;3.33;;;1.90;98.00;;;;;;5027139;28;20562;-63
2022/12/14 13:36:39;;;;;;;8.33;5.07;;;2.00;98.00;;;;;;5011060;28;20846;-63